Time;durP1;ratioP1;P1;durP2;ratioP2;P2;SDS_P1;SDS_P2;PMS_P1;PMS_P2;Temp;Humidity;BMP_temperature;BMP_pressure;BME280_temperature;BME280_humidity;BME280_pressure;Samples;Min_cycle;Max_cycle;Signal;HPM_P1;HPM_P2
2023/06/06 00:00:29;;;;;;;12.23;8.38;;;;;;;;;;4385846;32;317876;-83
2023/06/06 00:02:56;;;;;;;13.98;8.65;;;;;;;;;;4387579;32;317667;-83
2023/06/06 00:05:25;;;;;;;11.52;8.13;;;;;;;;;;4374803;32;417051;-85
2023/06/06 00:07:54;;;;;;;12.55;8.18;;;;;;;;;;4387751;32;318134;-90
2023/06/06 00:10:22;;;;;;;16.37;7.07;;;;;;;;;;4374830;32;330584;-91
2023/06/06 00:12:52;;;;;;;13.75;7.80;;;;;;;;;;4387995;32;317696;-81
2023/06/06 00:15:20;;;;;;;10.57;8.18;;;;;;;;;;4376225;32;317857;-78
2023/06/06 00:17:48;;;;;;;23.75;7.70;;;;;;;;;;4387551;32;317854;-80
2023/06/06 00:20:16;;;;;;;13.02;7.30;;;;;;;;;;4376002;32;338756;-78
2023/06/06 00:22:44;;;;;;;16.42;8.25;;;;;;;;;;4386776;32;317464;-82
2023/06/06 00:25:13;;;;;;;15.45;7.82;;;;;;;;;;4376739;32;317890;-83
2023/06/06 00:27:40;;;;;;;14.80;8.20;;;;;;;;;;4387694;32;317708;-83
2023/06/06 00:30:08;;;;;;;11.63;7.87;;;;;;;;;;4376553;32;317799;-83
2023/06/06 00:32:36;;;;;;;12.73;7.62;;;;;;;;;;4386297;32;317620;-85
2023/06/06 00:35:04;;;;;;;13.40;7.50;;;;;;;;;;4376214;32;317808;-83
2023/06/06 00:37:31;;;;;;;11.45;6.78;;;;;;;;;;4387448;32;317626;-88
2023/06/06 00:39:59;;;;;;;13.02;7.75;;;;;;;;;;4372553;32;352000;-83
2023/06/06 00:42:28;;;;;;;10.70;7.78;;;;;;;;;;4386492;32;317926;-84
2023/06/06 00:44:55;;;;;;;13.45;8.48;;;;;;;;;;4387159;32;317801;-86
2023/06/06 00:47:23;;;;;;;9.90;8.32;;;;;;;;;;4374459;32;416902;-85
2023/06/06 00:49:50;;;;;;;10.55;8.52;;;;;;;;;;4387259;32;316721;-83
2023/06/06 00:52:18;;;;;;;11.70;7.20;;;;;;;;;;4375926;32;317614;-82
2023/06/06 00:54:46;;;;;;;12.23;7.22;;;;;;;;;;4384775;32;317969;-83
2023/06/06 00:57:14;;;;;;;18.80;8.15;;;;;;;;;;4376580;32;317701;-79
2023/06/06 00:59:43;;;;;;;12.40;7.75;;;;;;;;;;4384842;32;317841;-84
2023/06/06 01:02:17;;;;;;;9.65;7.25;;;;;;;;;;4375192;32;317683;-83
2023/06/06 01:04:45;;;;;;;8.77;7.30;;;;;;;;;;4387070;32;316699;-83
2023/06/06 01:07:16;;;;;;;12.80;7.43;;;;;;;;;;4377225;32;316643;-90
2023/06/06 01:09:45;;;;;;;19.17;7.43;;;;;;;;;;4384279;32;317844;-85
2023/06/06 01:12:25;;;;;;;13.80;7.10;;;;;;;;;;4377041;32;317732;-83
2023/06/06 01:14:59;;;;;;;12.98;9.18;;;;;;;;;;4384476;32;318058;-82
2023/06/06 01:17:27;;;;;;;16.23;7.95;;;;;;;;;;4373650;32;418078;-83
2023/06/06 01:19:56;;;;;;;14.05;7.12;;;;;;;;;;4386393;32;317557;-83
2023/06/06 01:22:27;;;;;;;18.52;8.18;;;;;;;;;;4373623;32;416757;-84
2023/06/06 01:24:56;;;;;;;10.10;8.00;;;;;;;;;;4386892;32;318118;-82
2023/06/06 01:27:23;;;;;;;14.32;8.43;;;;;;;;;;4372780;32;417193;-83
2023/06/06 01:29:51;;;;;;;14.10;8.55;;;;;;;;;;4385250;32;317754;-82
2023/06/06 01:32:23;;;;;;;13.73;8.32;;;;;;;;;;4375723;32;317663;-83
2023/06/06 01:34:58;;;;;;;11.25;8.60;;;;;;;;;;4385641;32;317794;-82
2023/06/06 01:37:36;;;;;;;10.93;9.30;;;;;;;;;;4373143;32;416691;-83
2023/06/06 01:40:06;;;;;;;19.17;10.70;;;;;;;;;;4375839;32;317996;-83
2023/06/06 01:42:38;;;;;;;15.10;8.25;;;;;;;;;;4385755;32;318970;-83
2023/06/06 01:45:09;;;;;;;16.45;8.57;;;;;;;;;;4374961;32;318358;-86
2023/06/06 01:47:38;;;;;;;15.00;8.48;;;;;;;;;;4384799;32;317842;-83
2023/06/06 01:50:07;;;;;;;9.52;7.72;;;;;;;;;;4375004;32;318186;-82
2023/06/06 01:52:39;;;;;;;17.05;8.02;;;;;;;;;;4386430;32;316749;-81
2023/06/06 01:55:08;;;;;;;11.43;8.43;;;;;;;;;;4375439;32;317772;-83
2023/06/06 01:57:36;;;;;;;14.10;9.38;;;;;;;;;;4386297;32;316713;-83
2023/06/06 02:00:07;;;;;;;18.10;8.25;;;;;;;;;;4374994;32;317723;-83
2023/06/06 02:02:35;;;;;;;13.50;9.05;;;;;;;;;;4384658;32;317756;-86
2023/06/06 02:05:03;;;;;;;12.35;9.65;;;;;;;;;;4375723;32;318049;-84
2023/06/06 02:07:30;;;;;;;12.18;8.80;;;;;;;;;;4386162;32;317546;-83
2023/06/06 02:09:59;;;;;;;11.80;9.20;;;;;;;;;;4375889;32;318045;-83
2023/06/06 02:12:26;;;;;;;14.07;9.63;;;;;;;;;;4386555;32;318057;-84
2023/06/06 02:14:55;;;;;;;15.55;8.82;;;;;;;;;;4386198;32;316662;-82
2023/06/06 02:17:22;;;;;;;12.60;10.45;;;;;;;;;;4373269;32;417214;-83
2023/06/06 02:19:50;;;;;;;24.87;9.95;;;;;;;;;;4384961;32;319123;-82
2023/06/06 02:22:17;;;;;;;12.05;9.65;;;;;;;;;;4373738;32;317896;-83
2023/06/06 02:24:45;;;;;;;10.73;9.65;;;;;;;;;;4385804;32;317863;-82
2023/06/06 02:27:14;;;;;;;11.88;8.38;;;;;;;;;;4375646;32;317743;-84
2023/06/06 02:29:42;;;;;;;9.55;8.55;;;;;;;;;;4384852;32;318153;-85
2023/06/06 02:32:10;;;;;;;15.88;9.30;;;;;;;;;;4375579;32;317038;-82
2023/06/06 02:34:37;;;;;;;12.40;9.15;;;;;;;;;;4384044;32;317527;-85
2023/06/06 02:37:06;;;;;;;14.13;9.35;;;;;;;;;;4374764;32;317863;-88
2023/06/06 02:39:34;;;;;;;32.78;8.60;;;;;;;;;;4385400;32;340477;-89
2023/06/06 02:42:01;;;;;;;9.20;8.30;;;;;;;;;;4374786;32;318204;-82
2023/06/06 02:44:31;;;;;;;17.98;8.93;;;;;;;;;;4385053;32;316704;-82
2023/06/06 02:46:58;;;;;;;19.77;8.75;;;;;;;;;;4374881;32;318000;-82
2023/06/06 02:49:27;;;;;;;18.52;9.07;;;;;;;;;;4385848;32;317815;-82
2023/06/06 02:51:55;;;;;;;13.10;8.55;;;;;;;;;;4384054;32;318068;-84
2023/06/06 02:54:22;;;;;;;11.48;8.75;;;;;;;;;;4372830;32;416950;-83
2023/06/06 02:56:50;;;;;;;15.90;8.98;;;;;;;;;;4384228;32;342851;-83
2023/06/06 02:59:17;;;;;;;15.13;9.30;;;;;;;;;;4377561;32;317760;-83
2023/06/06 03:01:47;;;;;;;15.20;9.32;;;;;;;;;;4388029;32;318068;-82
2023/06/06 03:04:15;;;;;;;26.58;14.10;;;;;;;;;;4378752;32;318171;-82
2023/06/06 03:06:43;;;;;;;26.65;21.37;;;;;;;;;;4388333;32;319022;-82
2023/06/06 03:09:10;;;;;;;41.97;26.90;;;;;;;;;;4378104;32;318791;-78
2023/06/06 03:11:38;;;;;;;47.42;29.37;;;;;;;;;;4387956;32;335011;-80
2023/06/06 03:14:05;;;;;;;36.88;25.27;;;;;;;;;;4377417;32;319219;-79
2023/06/06 03:16:34;;;;;;;33.53;19.33;;;;;;;;;;4387089;32;318939;-82
2023/06/06 03:19:03;;;;;;;21.70;17.15;;;;;;;;;;4376743;32;319205;-82
2023/06/06 03:21:33;;;;;;;20.85;16.02;;;;;;;;;;4387067;32;319272;-80
2023/06/06 03:24:01;;;;;;;16.02;11.35;;;;;;;;;;4377852;32;318767;-82
2023/06/06 03:26:29;;;;;;;20.80;11.63;;;;;;;;;;4387028;32;319190;-79
2023/06/06 03:28:57;;;;;;;10.07;9.07;;;;;;;;;;4387943;32;318807;-81
2023/06/06 03:31:24;;;;;;;10.73;9.43;;;;;;;;;;4374860;32;416594;-79
2023/06/06 03:33:52;;;;;;;9.75;7.68;;;;;;;;;;4386948;32;318140;-80
2023/06/06 03:36:21;;;;;;;9.45;8.50;;;;;;;;;;4377520;32;316950;-79
2023/06/06 03:38:49;;;;;;;11.02;8.05;;;;;;;;;;4387480;32;317027;-84
2023/06/06 03:41:16;;;;;;;13.88;7.90;;;;;;;;;;4375775;32;318105;-81
2023/06/06 03:43:44;;;;;;;9.27;8.32;;;;;;;;;;4386986;32;317826;-87
2023/06/06 03:46:11;;;;;;;14.75;9.27;;;;;;;;;;4375100;32;316822;-89
2023/06/06 03:48:39;;;;;;;14.43;9.80;;;;;;;;;;4388587;32;318110;-89
2023/06/06 03:51:07;;;;;;;16.52;9.60;;;;;;;;;;4377997;32;317940;-93
2023/06/06 03:53:36;;;;;;;14.80;8.80;;;;;;;;;;4385599;32;318087;-90
2023/06/06 03:56:05;;;;;;;16.50;10.32;;;;;;;;;;4375108;32;317992;-87
2023/06/06 03:58:33;;;;;;;12.82;8.80;;;;;;;;;;4387213;32;318890;-85
2023/06/06 04:01:01;;;;;;;12.10;9.93;;;;;;;;;;4375165;32;317791;-85
2023/06/06 04:03:36;;;;;;;11.48;9.70;;;;;;;;;;4386527;32;317618;-88
2023/06/06 04:06:04;;;;;;;10.25;8.75;;;;;;;;;;4373750;32;317558;-87
2023/06/06 04:08:32;;;;;;;13.05;9.88;;;;;;;;;;4387211;32;317647;-88
2023/06/06 04:11:01;;;;;;;11.60;9.90;;;;;;;;;;4377206;32;318047;-86
2023/06/06 04:13:29;;;;;;;14.13;10.45;;;;;;;;;;4384903;32;318178;-86
2023/06/06 04:15:56;;;;;;;16.75;11.25;;;;;;;;;;4387106;32;318806;-87
2023/06/06 04:18:25;;;;;;;20.20;11.50;;;;;;;;;;4374169;32;389648;-93
2023/06/06 04:20:53;;;;;;;19.05;12.55;;;;;;;;;;4386345;32;351682;-87
2023/06/06 04:23:21;;;;;;;16.77;11.63;;;;;;;;;;4375086;32;319525;-88
2023/06/06 04:25:50;;;;;;;15.63;11.10;;;;;;;;;;4385347;32;332099;-87
2023/06/06 04:28:19;;;;;;;18.73;11.02;;;;;;;;;;4377475;32;318858;-88
2023/06/06 04:30:51;;;;;;;14.05;10.70;;;;;;;;;;4386229;32;318897;-91
2023/06/06 04:33:19;;;;;;;13.30;10.82;;;;;;;;;;4376626;32;318801;-89
2023/06/06 04:35:46;;;;;;;26.15;10.07;;;;;;;;;;4386331;32;318681;-78
2023/06/06 04:38:18;;;;;;;11.05;9.40;;;;;;;;;;4377384;32;318811;-78
2023/06/06 04:40:50;;;;;;;14.55;9.15;;;;;;;;;;4386782;32;317647;-78
2023/06/06 04:43:23;;;;;;;14.90;9.50;;;;;;;;;;4375216;32;317754;-79
2023/06/06 04:45:53;;;;;;;18.85;10.82;;;;;;;;;;4384714;32;317773;-83
2023/06/06 04:48:20;;;;;;;10.88;9.35;;;;;;;;;;4374543;32;318818;-82
2023/06/06 04:50:49;;;;;;;19.17;10.32;;;;;;;;;;4386981;32;317779;-82
2023/06/06 04:53:19;;;;;;;12.68;9.93;;;;;;;;;;4375646;32;318785;-81
2023/06/06 04:55:47;;;;;;;17.70;9.48;;;;;;;;;;4384277;32;317598;-82
2023/06/06 04:58:16;;;;;;;14.35;10.35;;;;;;;;;;4376214;32;317679;-85
2023/06/06 05:00:46;;;;;;;12.90;10.43;;;;;;;;;;4386245;32;318660;-81
2023/06/06 05:03:19;;;;;;;15.93;10.45;;;;;;;;;;4376277;32;318663;-85
2023/06/06 05:05:49;;;;;;;13.38;9.85;;;;;;;;;;4386082;32;318910;-82
2023/06/06 05:08:17;;;;;;;18.73;9.75;;;;;;;;;;4376768;32;318001;-81
2023/06/06 05:10:44;;;;;;;10.25;8.40;;;;;;;;;;4384749;32;318077;-84
2023/06/06 05:13:11;;;;;;;18.87;10.13;;;;;;;;;;4377461;32;317907;-82
2023/06/06 05:15:39;;;;;;;12.40;9.77;;;;;;;;;;4386323;32;318796;-82
2023/06/06 05:18:08;;;;;;;19.05;9.45;;;;;;;;;;4374225;32;317755;-84
2023/06/06 05:20:36;;;;;;;9.55;8.52;;;;;;;;;;4383776;32;317660;-81
2023/06/06 05:23:05;;;;;;;10.18;8.40;;;;;;;;;;4373774;32;316928;-81
2023/06/06 05:25:32;;;;;;;14.02;8.88;;;;;;;;;;4386004;32;318104;-81
2023/06/06 05:28:01;;;;;;;14.95;9.85;;;;;;;;;;4375340;32;318096;-83
2023/06/06 05:30:28;;;;;;;10.85;7.57;;;;;;;;;;4385454;32;317871;-77
2023/06/06 05:35:42;;;;;;;13.35;8.85;;;;;;;;;;4367876;32;388382;-79
2023/06/06 05:38:10;;;;;;;14.93;9.77;;;;;;;;;;4370746;32;317968;-79
2023/06/06 05:40:37;;;;;;;11.05;9.60;;;;;;;;;;4382173;32;358705;-79
2023/06/06 05:43:04;;;;;;;15.13;9.95;;;;;;;;;;4375353;32;317714;-79
2023/06/06 05:45:32;;;;;;;21.67;10.13;;;;;;;;;;4384955;32;317798;-79
2023/06/06 05:48:00;;;;;;;20.27;10.55;;;;;;;;;;4369850;32;318719;-80
2023/06/06 05:50:27;;;;;;;24.08;12.13;;;;;;;;;;4384651;32;335497;-79
2023/06/06 05:52:56;;;;;;;23.50;11.65;;;;;;;;;;4386178;32;319023;-79
2023/06/06 05:55:31;;;;;;;18.92;11.07;;;;;;;;;;4371889;32;420795;-79
2023/06/06 05:57:58;;;;;;;18.98;12.70;;;;;;;;;;4376305;32;318840;-81
2023/06/06 06:00:27;;;;;;;20.02;13.10;;;;;;;;;;4384700;32;318784;-79
2023/06/06 06:02:57;;;;;;;21.00;13.20;;;;;;;;;;4385167;32;319260;-79
2023/06/06 06:05:27;;;;;;;16.87;12.65;;;;;;;;;;4366973;32;420994;-79
2023/06/06 06:07:59;;;;;;;39.08;13.68;;;;;;;;;;4385281;32;318777;-80
2023/06/06 06:10:26;;;;;;;22.62;13.20;;;;;;;;;;4370380;32;418360;-79
2023/06/06 06:12:54;;;;;;;29.80;13.57;;;;;;;;;;4384926;32;318775;-80
2023/06/06 06:15:21;;;;;;;18.08;13.20;;;;;;;;;;4374515;32;352808;-79
2023/06/06 06:17:48;;;;;;;22.87;12.02;;;;;;;;;;4385842;32;318901;-80
2023/06/06 06:20:17;;;;;;;23.87;12.88;;;;;;;;;;4375232;32;318899;-79
2023/06/06 06:22:45;;;;;;;20.02;14.25;;;;;;;;;;4385388;32;319016;-79
2023/06/06 06:25:14;;;;;;;21.37;14.80;;;;;;;;;;4372271;32;319174;-79
2023/06/06 06:27:43;;;;;;;17.12;14.27;;;;;;;;;;4385083;32;318973;-79
2023/06/06 06:30:12;;;;;;;23.12;14.30;;;;;;;;;;4374603;32;319103;-79
2023/06/06 06:32:41;;;;;;;23.90;14.45;;;;;;;;;;4385722;32;317611;-78
2023/06/06 06:35:10;;;;;;;21.05;16.33;;;;;;;;;;4375691;32;317851;-78
2023/06/06 06:37:39;;;;;;;26.37;17.35;;;;;;;;;;4388388;32;318911;-78
2023/06/06 06:40:09;;;;;;;23.08;15.77;;;;;;;;;;4376931;32;318858;-78
2023/06/06 06:42:41;;;;;;;17.45;15.60;;;;;;;;;;4388644;32;318826;-79
2023/06/06 06:45:11;;;;;;;23.38;17.25;;;;;;;;;;4376407;32;318029;-79
2023/06/06 06:47:38;;;;;;;23.40;19.10;;;;;;;;;;4387721;32;330117;-78
2023/06/06 06:50:07;;;;;;;25.48;18.60;;;;;;;;;;4376515;32;317661;-79
2023/06/06 06:52:35;;;;;;;19.98;17.33;;;;;;;;;;4387357;32;318844;-79
2023/06/06 06:55:04;;;;;;;21.42;18.17;;;;;;;;;;4378287;32;318802;-79
2023/06/06 06:57:32;;;;;;;26.45;20.30;;;;;;;;;;4387331;32;318758;-79
2023/06/06 07:00:03;;;;;;;27.08;18.92;;;;;;;;;;4372947;32;318997;-79
2023/06/06 07:02:30;;;;;;;20.77;16.55;;;;;;;;;;4387000;32;319008;-79
2023/06/06 07:04:59;;;;;;;17.98;15.30;;;;;;;;;;4374737;32;319247;-81
2023/06/06 07:07:26;;;;;;;18.48;13.07;;;;;;;;;;4392594;32;319162;-79
2023/06/06 07:09:54;;;;;;;21.90;14.93;;;;;;;;;;4387064;32;318723;-79
2023/06/06 07:12:21;;;;;;;16.73;13.73;;;;;;;;;;4376704;32;317741;-79
2023/06/06 07:14:49;;;;;;;22.48;12.90;;;;;;;;;;4386842;32;319092;-79
2023/06/06 07:17:18;;;;;;;18.20;12.60;;;;;;;;;;4377408;32;318842;-78
2023/06/06 07:19:45;;;;;;;19.92;11.98;;;;;;;;;;4389344;32;319138;-79
2023/06/06 07:22:14;;;;;;;13.10;9.38;;;;;;;;;;4376974;32;318760;-79
2023/06/06 07:24:41;;;;;;;15.75;9.15;;;;;;;;;;4387812;32;317560;-78
2023/06/06 07:27:08;;;;;;;13.23;10.30;;;;;;;;;;4376695;32;317776;-78
2023/06/06 07:29:37;;;;;;;10.80;8.70;;;;;;;;;;4386896;32;318917;-78
2023/06/06 07:32:05;;;;;;;33.80;10.52;;;;;;;;;;4375919;32;317726;-78
2023/06/06 07:34:37;;;;;;;12.90;7.00;;;;;;;;;;4387114;32;318804;-77
2023/06/06 07:37:06;;;;;;;16.02;8.50;;;;;;;;;;4376255;32;317803;-78
2023/06/06 07:39:34;;;;;;;14.85;9.10;;;;;;;;;;4387248;32;317730;-78
2023/06/06 07:42:01;;;;;;;9.45;7.18;;;;;;;;;;4376933;32;317975;-79
2023/06/06 07:44:28;;;;;;;13.05;7.62;;;;;;;;;;4384370;32;354722;-79
2023/06/06 07:46:55;;;;;;;18.17;8.90;;;;;;;;;;4385860;32;317827;-79
2023/06/06 07:49:23;;;;;;;10.50;8.00;;;;;;;;;;4373289;32;417019;-79
2023/06/06 07:51:52;;;;;;;11.45;7.65;;;;;;;;;;4386330;32;316581;-79
2023/06/06 07:54:19;;;;;;;11.20;8.23;;;;;;;;;;4376227;32;317957;-79
2023/06/06 07:56:47;;;;;;;10.43;8.80;;;;;;;;;;4387116;32;317672;-80
2023/06/06 07:59:15;;;;;;;10.68;8.00;;;;;;;;;;4376763;32;318210;-79
2023/06/06 08:01:43;;;;;;;10.50;8.23;;;;;;;;;;4385550;32;317797;-78
2023/06/06 08:04:10;;;;;;;11.73;8.13;;;;;;;;;;4376270;32;317977;-79
2023/06/06 08:06:38;;;;;;;10.35;7.87;;;;;;;;;;4386892;32;317575;-79
2023/06/06 08:09:08;;;;;;;13.37;8.57;;;;;;;;;;4375274;32;317949;-79
2023/06/06 08:11:35;;;;;;;11.40;8.40;;;;;;;;;;4385612;32;318164;-79
2023/06/06 08:14:03;;;;;;;10.15;8.88;;;;;;;;;;4376540;32;318086;-79
2023/06/06 08:16:32;;;;;;;13.62;8.98;;;;;;;;;;4387082;32;317743;-79
2023/06/06 08:18:59;;;;;;;17.40;8.65;;;;;;;;;;4375933;32;318036;-80
2023/06/06 08:21:26;;;;;;;9.82;8.13;;;;;;;;;;4386862;32;317952;-78
2023/06/06 08:23:55;;;;;;;14.40;9.63;;;;;;;;;;4386343;32;316868;-77
2023/06/06 08:26:25;;;;;;;10.90;8.88;;;;;;;;;;4373363;32;417621;-79
2023/06/06 08:28:52;;;;;;;12.15;8.43;;;;;;;;;;4385517;32;317651;-79
2023/06/06 08:31:23;;;;;;;13.05;8.93;;;;;;;;;;4374308;32;318132;-79
2023/06/06 08:33:50;;;;;;;16.62;8.73;;;;;;;;;;4386673;32;317933;-79
2023/06/06 08:36:18;;;;;;;15.35;10.20;;;;;;;;;;4375546;32;317711;-79
2023/06/06 08:38:45;;;;;;;13.77;9.13;;;;;;;;;;4385996;32;341017;-80
2023/06/06 08:41:15;;;;;;;13.80;7.85;;;;;;;;;;4375369;32;317950;-79
2023/06/06 08:43:47;;;;;;;13.43;8.65;;;;;;;;;;4383743;32;318147;-79
2023/06/06 08:46:15;;;;;;;16.30;8.98;;;;;;;;;;4374172;32;317682;-79
2023/06/06 08:48:45;;;;;;;17.12;9.30;;;;;;;;;;4384070;32;316749;-78
2023/06/06 08:51:13;;;;;;;13.50;8.70;;;;;;;;;;4375755;32;335514;-79
2023/06/06 08:53:44;;;;;;;10.77;8.85;;;;;;;;;;4386482;32;318127;-79
2023/06/06 08:56:13;;;;;;;12.13;9.57;;;;;;;;;;4374211;32;317888;-78
2023/06/06 08:58:46;;;;;;;11.15;9.15;;;;;;;;;;4385924;32;324207;-79
2023/06/06 09:01:14;;;;;;;15.50;9.90;;;;;;;;;;4374812;32;318382;-78
2023/06/06 09:03:43;;;;;;;12.57;8.85;;;;;;;;;;4386448;32;317861;-79
2023/06/06 09:06:11;;;;;;;14.38;9.10;;;;;;;;;;4376461;32;317735;-78
2023/06/06 09:08:40;;;;;;;12.70;9.43;;;;;;;;;;4385391;32;318124;-79
2023/06/06 09:11:07;;;;;;;25.85;12.07;;;;;;;;;;4375052;32;317768;-79
2023/06/06 09:13:35;;;;;;;16.27;11.27;;;;;;;;;;4386006;32;318742;-79
2023/06/06 09:16:08;;;;;;;27.67;18.30;;;;;;;;;;4374968;32;369069;-79
2023/06/06 09:18:36;;;;;;;16.48;10.30;;;;;;;;;;4385802;32;318826;-79
2023/06/06 09:21:03;;;;;;;15.73;9.43;;;;;;;;;;4375902;32;318797;-79
2023/06/06 09:23:31;;;;;;;15.73;8.80;;;;;;;;;;4383456;32;317849;-79
2023/06/06 09:25:59;;;;;;;14.73;10.27;;;;;;;;;;4372622;32;332201;-80
2023/06/06 09:28:38;;;;;;;16.08;10.10;;;;;;;;;;4385174;32;317829;-79
2023/06/06 09:31:29;;;;;;;16.08;8.95;;;;;;;;;;4374769;32;318855;-80
2023/06/06 09:33:58;;;;;;;12.57;9.05;;;;;;;;;;4385161;32;318132;-79
2023/06/06 09:36:28;;;;;;;11.63;8.63;;;;;;;;;;4373051;32;417177;-79
2023/06/06 09:39:04;;;;;;;17.25;9.10;;;;;;;;;;4385599;32;317863;-79
2023/06/06 09:41:31;;;;;;;10.73;7.85;;;;;;;;;;4373077;32;417264;-78
2023/06/06 09:43:59;;;;;;;7.53;6.72;;;;;;;;;;4375845;32;317851;-80
2023/06/06 09:46:27;;;;;;;10.98;6.50;;;;;;;;;;4385319;32;316708;-79
2023/06/06 09:48:58;;;;;;;11.90;7.03;;;;;;;;;;4385201;32;317854;-79
2023/06/06 09:51:26;;;;;;;10.45;7.50;;;;;;;;;;4372098;32;416872;-79
2023/06/06 09:53:54;;;;;;;9.55;6.75;;;;;;;;;;4383153;32;317778;-79
2023/06/06 09:56:23;;;;;;;8.02;6.32;;;;;;;;;;4375349;32;316879;-79
2023/06/06 09:58:55;;;;;;;11.07;6.68;;;;;;;;;;4385084;32;316802;-79
2023/06/06 10:01:28;;;;;;;15.50;6.85;;;;;;;;;;4370194;32;418682;-79
2023/06/06 10:03:58;;;;;;;11.07;6.65;;;;;;;;;;4383054;32;317669;-79
2023/06/06 10:06:26;;;;;;;13.68;8.15;;;;;;;;;;4372207;32;417175;-79
2023/06/06 10:08:56;;;;;;;9.38;7.15;;;;;;;;;;4383392;32;317735;-79
2023/06/06 10:11:24;;;;;;;14.48;6.68;;;;;;;;;;4372920;32;416741;-79
2023/06/06 10:13:54;;;;;;;8.40;6.00;;;;;;;;;;4385832;32;317788;-79
2023/06/06 10:16:22;;;;;;;8.88;6.82;;;;;;;;;;4375494;32;316526;-80
2023/06/06 10:18:51;;;;;;;7.97;7.00;;;;;;;;;;4384767;32;326210;-80
2023/06/06 10:21:19;;;;;;;10.45;6.50;;;;;;;;;;4374781;32;316627;-80
2023/06/06 10:23:47;;;;;;;14.48;6.25;;;;;;;;;;4382756;32;317890;-80
2023/06/06 10:26:20;;;;;;;7.10;5.37;;;;;;;;;;4375353;32;316522;-79
2023/06/06 10:28:55;;;;;;;9.00;6.05;;;;;;;;;;4383758;32;316874;-78
2023/06/06 10:31:34;;;;;;;9.60;5.90;;;;;;;;;;4375613;32;317000;-79
2023/06/06 10:34:07;;;;;;;6.95;5.55;;;;;;;;;;4374298;32;316905;-79
2023/06/06 10:36:43;;;;;;;10.85;5.87;;;;;;;;;;4385643;32;316720;-78
2023/06/06 10:39:21;;;;;;;8.20;6.22;;;;;;;;;;4374451;32;317942;-78
2023/06/06 10:41:54;;;;;;;10.13;5.62;;;;;;;;;;4384390;32;316526;-78
2023/06/06 10:44:26;;;;;;;8.05;5.80;;;;;;;;;;4374681;32;318077;-79
2023/06/06 10:47:15;;;;;;;9.13;5.60;;;;;;;;;;4385937;32;316840;-79
2023/06/06 10:50:21;;;;;;;12.73;5.47;;;;;;;;;;4371077;32;417044;-79
2023/06/06 10:52:50;;;;;;;11.43;5.60;;;;;;;;;;4372694;32;418254;-79
2023/06/06 10:55:18;;;;;;;5.82;5.00;;;;;;;;;;4374744;32;317810;-79
2023/06/06 10:58:04;;;;;;;8.80;5.53;;;;;;;;;;4385134;32;316630;-79
2023/06/06 11:00:34;;;;;;;6.57;4.97;;;;;;;;;;4371574;32;417659;-77
2023/06/06 11:03:05;;;;;;;8.88;5.60;;;;;;;;;;4372678;32;317080;-79
2023/06/06 11:05:55;;;;;;;5.20;4.70;;;;;;;;;;4382992;32;316830;-79
2023/06/06 11:08:33;;;;;;;9.05;5.43;;;;;;;;;;4375352;32;316753;-79
2023/06/06 11:11:19;;;;;;;5.75;5.07;;;;;;;;;;4375700;32;316826;-79
2023/06/06 11:13:57;;;;;;;10.63;5.07;;;;;;;;;;4385757;32;316558;-79
2023/06/06 11:17:05;;;;;;;6.12;5.00;;;;;;;;;;4370705;32;418178;-79
2023/06/06 11:19:37;;;;;;;6.72;5.20;;;;;;;;;;4373718;32;417625;-79
2023/06/06 11:22:07;;;;;;;6.20;4.65;;;;;;;;;;4377542;32;316579;-80
2023/06/06 11:24:35;;;;;;;6.30;5.60;;;;;;;;;;4388393;32;317041;-79
2023/06/06 11:27:06;;;;;;;8.63;5.45;;;;;;;;;;4377830;32;316892;-79
2023/06/06 11:29:34;;;;;;;6.53;5.22;;;;;;;;;;4388176;32;316646;-78
2023/06/06 11:32:03;;;;;;;8.82;4.78;;;;;;;;;;4377625;32;316796;-78
2023/06/06 11:34:36;;;;;;;7.50;4.72;;;;;;;;;;4386682;32;316705;-80
2023/06/06 11:37:04;;;;;;;9.80;4.95;;;;;;;;;;4377789;32;316612;-77
2023/06/06 11:39:33;;;;;;;7.90;4.45;;;;;;;;;;4385878;32;316861;-77
2023/06/06 11:42:01;;;;;;;6.47;4.53;;;;;;;;;;4376600;32;316946;-80
2023/06/06 11:44:33;;;;;;;5.97;4.30;;;;;;;;;;4387152;32;316853;-79
2023/06/06 11:47:03;;;;;;;8.88;4.18;;;;;;;;;;4375319;32;316689;-77
2023/06/06 11:49:42;;;;;;;4.57;3.47;;;;;;;;;;4387776;32;316913;-79
2023/06/06 11:52:23;;;;;;;12.20;4.00;;;;;;;;;;4375770;32;316656;-79
2023/06/06 11:55:04;;;;;;;8.20;3.87;;;;;;;;;;4386908;32;318044;-77
2023/06/06 11:57:32;;;;;;;4.20;3.80;;;;;;;;;;4373721;32;420049;-78
2023/06/06 12:00:07;;;;;;;5.43;4.32;;;;;;;;;;4376971;32;316634;-78
2023/06/06 12:02:35;;;;;;;11.43;4.93;;;;;;;;;;4384702;32;317052;-79
2023/06/06 12:05:03;;;;;;;4.45;3.78;;;;;;;;;;4384710;32;318067;-78
2023/06/06 12:07:30;;;;;;;4.90;3.37;;;;;;;;;;4372558;32;418943;-78
2023/06/06 12:09:59;;;;;;;7.93;4.12;;;;;;;;;;4384918;32;352778;-80
2023/06/06 12:12:27;;;;;;;4.80;3.35;;;;;;;;;;4373970;32;354913;-79
2023/06/06 12:14:59;;;;;;;6.30;3.53;;;;;;;;;;4387101;32;316717;-78
2023/06/06 12:17:28;;;;;;;5.05;3.10;;;;;;;;;;4375822;32;316816;-78
2023/06/06 12:19:57;;;;;;;15.23;3.80;;;;;;;;;;4386016;32;317173;-78
2023/06/06 12:22:33;;;;;;;8.10;3.67;;;;;;;;;;4376293;32;317890;-80
2023/06/06 12:25:02;;;;;;;7.65;3.25;;;;;;;;;;4384510;32;316791;-78
2023/06/06 12:27:33;;;;;;;5.43;3.00;;;;;;;;;;4375915;32;316730;-78
2023/06/06 12:30:02;;;;;;;5.37;4.03;;;;;;;;;;4385962;32;316765;-77
2023/06/06 12:32:30;;;;;;;10.48;3.25;;;;;;;;;;4375720;32;348456;-79
2023/06/06 12:35:01;;;;;;;10.32;2.85;;;;;;;;;;4387257;32;317924;-79
2023/06/06 12:37:39;;;;;;;4.75;3.30;;;;;;;;;;4376775;32;317834;-77
2023/06/06 12:40:19;;;;;;;5.97;2.85;;;;;;;;;;4370472;32;350580;-80
2023/06/06 12:42:52;;;;;;;15.60;3.92;;;;;;;;;;4386444;32;317021;-80
2023/06/06 12:45:20;;;;;;;5.10;2.55;;;;;;;;;;4376336;32;318070;-78
2023/06/06 12:47:49;;;;;;;8.45;3.35;;;;;;;;;;4386409;32;316719;-79
2023/06/06 12:50:16;;;;;;;5.53;3.37;;;;;;;;;;4374340;32;316947;-78
2023/06/06 12:52:43;;;;;;;8.65;3.90;;;;;;;;;;4387375;32;317129;-79
2023/06/06 12:55:11;;;;;;;4.43;3.70;;;;;;;;;;4374286;32;317167;-80
2023/06/06 12:57:40;;;;;;;5.80;3.78;;;;;;;;;;4386505;32;316867;-76
2023/06/06 13:00:11;;;;;;;6.55;4.18;;;;;;;;;;4372046;32;317444;-79
2023/06/06 13:02:39;;;;;;;5.43;4.30;;;;;;;;;;4386895;32;316932;-78
2023/06/06 13:05:07;;;;;;;6.30;3.90;;;;;;;;;;4373728;32;316689;-79
2023/06/06 13:07:35;;;;;;;9.80;6.93;;;;;;;;;;4386596;32;315598;-78
2023/06/06 13:10:02;;;;;;;7.85;5.30;;;;;;;;;;4387242;32;317043;-78
2023/06/06 13:12:31;;;;;;;5.15;4.20;;;;;;;;;;4376165;32;316509;-78
2023/06/06 13:15:02;;;;;;;11.60;3.95;;;;;;;;;;4386945;32;317052;-78
2023/06/06 13:17:30;;;;;;;8.95;4.93;;;;;;;;;;4376340;32;318021;-78
2023/06/06 13:19:57;;;;;;;7.72;3.90;;;;;;;;;;4385859;32;316894;-78
2023/06/06 13:22:25;;;;;;;6.28;4.28;;;;;;;;;;4375415;32;316827;-79
2023/06/06 13:24:52;;;;;;;6.57;3.70;;;;;;;;;;4385534;32;317074;-79
2023/06/06 13:27:21;;;;;;;7.37;3.58;;;;;;;;;;4375072;32;317221;-79
2023/06/06 13:29:48;;;;;;;5.40;3.03;;;;;;;;;;4386508;32;316869;-78
2023/06/06 13:32:17;;;;;;;4.82;3.87;;;;;;;;;;4375246;32;357709;-79
2023/06/06 13:34:44;;;;;;;5.65;3.37;;;;;;;;;;4386019;32;316813;-78
2023/06/06 13:37:12;;;;;;;6.17;2.90;;;;;;;;;;4373310;32;316839;-78
2023/06/06 13:39:39;;;;;;;6.82;3.58;;;;;;;;;;4385612;32;316762;-78
2023/06/06 13:42:09;;;;;;;5.47;3.75;;;;;;;;;;4375550;32;317013;-78
2023/06/06 13:44:36;;;;;;;5.22;3.33;;;;;;;;;;4385792;32;316471;-77
2023/06/06 13:47:04;;;;;;;5.07;3.12;;;;;;;;;;4384491;32;316688;-78
2023/06/06 13:49:33;;;;;;;5.78;3.33;;;;;;;;;;4372084;32;415772;-77
2023/06/06 13:52:00;;;;;;;7.22;3.35;;;;;;;;;;4384941;32;317240;-77
2023/06/06 13:54:28;;;;;;;6.97;4.32;;;;;;;;;;4375715;32;316993;-77
2023/06/06 13:57:00;;;;;;;8.77;3.97;;;;;;;;;;4384911;32;316928;-76
2023/06/06 13:59:28;;;;;;;8.98;3.50;;;;;;;;;;4373377;32;316810;-77
2023/06/06 14:01:56;;;;;;;6.15;3.40;;;;;;;;;;4384799;32;316738;-77
2023/06/06 14:04:23;;;;;;;7.93;4.10;;;;;;;;;;4375199;32;316717;-77
2023/06/06 14:06:52;;;;;;;6.20;3.75;;;;;;;;;;4385296;32;316819;-77
2023/06/06 14:09:20;;;;;;;8.07;4.47;;;;;;;;;;4375349;32;317056;-76
2023/06/06 14:11:49;;;;;;;4.32;3.92;;;;;;;;;;4384362;32;316811;-77
2023/06/06 14:14:16;;;;;;;5.68;4.50;;;;;;;;;;4376122;32;316799;-77
2023/06/06 14:16:44;;;;;;;4.37;3.05;;;;;;;;;;4385370;32;316741;-76
2023/06/06 14:19:13;;;;;;;5.03;3.17;;;;;;;;;;4372925;32;316717;-77
2023/06/06 14:22:09;;;;;;;6.25;4.18;;;;;;;;;;4383503;32;345199;-76
2023/06/06 14:24:38;;;;;;;9.05;4.45;;;;;;;;;;4374250;32;387869;-77
2023/06/06 14:27:06;;;;;;;6.70;4.93;;;;;;;;;;4375185;32;316759;-79
2023/06/06 14:29:35;;;;;;;8.60;4.95;;;;;;;;;;4386000;32;317146;-76
2023/06/06 14:32:02;;;;;;;5.53;4.22;;;;;;;;;;4383797;32;316891;-77
2023/06/06 14:34:31;;;;;;;9.95;4.90;;;;;;;;;;4374907;32;316768;-77